Time;durP1;ratioP1;P1;durP2;ratioP2;P2;SDS_P1;SDS_P2;PMS_P1;PMS_P2;Temp;Humidity;BMP_temperature;BMP_pressure;BME280_temperature;BME280_humidity;BME280_pressure;Samples;Min_cycle;Max_cycle;Signal;HPM_P1;HPM_P2
2022/10/02 00:02:14;;;;;;;;;;;;;;;16.61;79.88;95201.66;5009101;28;20037;-91
2022/10/02 00:04:57;;;;;;;4.57;1.90;;;;;;;16.50;79.31;95186.97;4990973;28;19951;-91
2022/10/02 00:07:44;;;;;;;3.63;1.20;;;;;;;16.56;79.13;95199.63;4976926;28;20080;-91
2022/10/02 00:10:26;;;;;;;5.13;1.50;;;;;;;16.53;79.20;95200.06;5007513;28;20492;-91
2022/10/02 00:12:58;;;;;;;3.53;1.15;;;;;;;16.61;79.17;95199.78;4974115;28;20034;-90
2022/10/02 00:15:30;;;;;;;4.55;1.30;;;;;;;16.63;79.35;95199.56;4974969;28;20088;-91
2022/10/02 00:17:59;;;;;;;4.38;1.17;;;;;;;16.70;78.65;95194.09;4974679;28;20041;-91
2022/10/02 00:20:41;;;;;;;4.60;1.75;;;;;;;16.78;79.01;95201.94;4975163;28;20527;-91
2022/10/02 00:23:24;;;;;;;4.07;1.25;;;;;;;16.81;78.54;95202.31;4974537;28;20529;-91
2022/10/02 00:25:51;;;;;;;4.63;1.38;;;;;;;16.89;79.05;95200.38;4990055;28;20478;-91
2022/10/02 00:28:49;;;;;;;4.30;1.50;;;;;;;16.87;79.31;95208.72;4990312;28;20029;-92
2022/10/02 00:31:35;;;;;;;4.13;1.77;;;;;;;16.84;79.02;95211.06;4990289;28;20042;-92
2022/10/02 00:34:29;;;;;;;3.53;2.10;;;;;;;16.87;79.00;95218.72;4990872;28;20469;-92
2022/10/02 00:37:04;;;;;;;3.28;2.03;;;;;;;16.76;79.53;95215.72;4990714;28;20030;-91
2022/10/02 00:39:40;;;;;;;5.03;2.25;;;;;;;16.60;80.51;95217.09;4974259;28;20034;-90
2022/10/02 00:42:33;;;;;;;5.50;2.30;;;;;;;16.57;80.87;95225.66;5008206;28;20120;-93
2022/10/02 00:45:30;;;;;;;3.58;2.58;;;;;;;16.58;80.70;95224.59;4990602;28;20041;-92
2022/10/02 00:48:15;;;;;;;5.97;3.10;;;;;;;16.45;81.49;95225.53;4975874;28;20112;-92
2022/10/02 00:50:43;;;;;;;6.57;3.45;;;;;;;16.33;81.88;95216.47;4990475;28;20246;-93
2022/10/02 00:53:53;;;;;;;3.83;2.72;;;;;;;16.39;82.19;95234.53;4990177;28;20124;-91
2022/10/02 00:56:40;;;;;;;6.43;3.40;;;;;;;16.44;81.73;95234.69;4937611;28;20048;-94
2022/10/02 00:59:28;;;;;;;4.07;3.00;;;;;;;16.54;81.60;95242.34;4993043;28;20026;-91
2022/10/02 01:02:34;;;;;;;5.93;3.50;;;;;;;16.68;80.87;95235.75;4990078;28;20073;-91
2022/10/02 01:05:00;;;;;;;5.18;3.25;;;;;;;16.80;80.21;95238.56;5007373;28;20026;-92
2022/10/02 01:07:26;;;;;;;5.85;3.42;;;;;;;16.79;79.25;95236.09;4990460;28;20462;-92
2022/10/02 01:09:52;;;;;;;5.80;3.53;;;;;;;16.85;78.92;95240.63;4974668;28;20033;-92
2022/10/02 01:12:18;;;;;;;5.78;3.60;;;;;;;16.84;78.82;95243.56;4990437;28;20026;-93
2022/10/02 01:14:43;;;;;;;7.30;3.50;;;;;;;16.81;78.60;95242.94;4974082;28;20040;-92
2022/10/02 01:17:32;;;;;;;4.07;3.30;;;;;;;16.87;77.57;95249.38;5008479;28;20025;-92
2022/10/02 01:20:03;;;;;;;6.00;2.72;;;;;;;16.73;77.92;95247.81;4991137;28;20049;-92
2022/10/02 01:22:35;;;;;;;6.43;3.10;;;;;;;16.71;76.24;95244.50;4991157;28;20076;-92
2022/10/02 01:25:03;;;;;;;4.47;2.58;;;;;;;16.71;75.80;95244.50;5008516;28;20080;-93
2022/10/02 01:27:28;;;;;;;4.95;2.90;;;;;;;16.58;75.69;95240.00;4974578;28;20041;-93
2022/10/02 01:29:56;;;;;;;3.30;2.35;;;;;;;16.47;75.51;95233.41;4975138;28;20033;-92
2022/10/02 01:32:24;;;;;;;3.97;2.58;;;;;;;16.36;76.02;95238.50;4973918;28;20038;-92
2022/10/02 01:34:51;;;;;;;5.30;2.58;;;;;;;16.35;74.54;95239.53;4991295;28;20335;-93
2022/10/02 01:37:16;;;;;;;2.45;1.77;;;;;;;16.31;72.90;95249.16;4977240;28;20022;-92
2022/10/02 01:39:42;;;;;;;2.67;1.80;;;;;;;15.99;73.18;95254.53;4998383;28;20040;-91
2022/10/02 01:42:07;;;;;;;3.20;2.25;;;;;;;15.98;73.01;95269.06;5000676;28;20042;-91
2022/10/02 01:44:33;;;;;;;2.70;1.70;;;;;;;15.91;74.08;95267.22;4979993;28;20034;-91
2022/10/02 01:47:10;;;;;;;5.22;1.70;;;;;;;15.71;74.21;95270.00;4995393;28;20471;-91
2022/10/02 01:50:14;;;;;;;3.55;1.75;;;;;;;15.96;73.25;95271.16;4981524;28;20030;-91
2022/10/02 01:52:46;;;;;;;2.78;1.77;;;;;;;16.01;73.39;95268.69;4935559;29;20072;-92
2022/10/02 01:55:39;;;;;;;3.15;1.75;;;;;;;16.09;73.31;95270.28;4986132;28;20037;-92
2022/10/02 01:58:28;;;;;;;2.97;1.90;;;;;;;15.97;74.16;95270.94;4979143;28;20069;-91
2022/10/02 02:01:09;;;;;;;3.85;2.05;;;;;;;15.91;74.20;95280.72;4994942;28;20028;-92
2022/10/02 02:04:21;;;;;;;3.50;2.05;;;;;;;15.77;74.67;95277.25;4995472;28;20014;-92
2022/10/02 02:07:08;;;;;;;5.40;2.00;;;;;;;15.70;73.43;95269.16;4987409;28;20053;-92
2022/10/02 02:09:39;;;;;;;3.10;1.80;;;;;;;15.73;73.54;95288.72;5000578;28;20026;-94
2022/10/02 02:12:11;;;;;;;3.65;2.00;;;;;;;15.76;73.15;95297.22;4984465;28;20063;-91
2022/10/02 02:14:42;;;;;;;6.35;1.73;;;;;;;15.72;72.82;95303.28;4965735;28;20030;-91
2022/10/02 02:17:18;;;;;;;2.67;1.75;;;;;;;15.81;72.09;95305.50;4981742;28;20465;-92
2022/10/02 02:19:49;;;;;;;3.20;1.50;;;;;;;15.68;72.52;95310.97;4969573;28;20076;-92
2022/10/02 02:22:23;;;;;;;2.65;1.40;;;;;;;15.60;72.13;95322.00;4985119;28;20022;-92
2022/10/02 02:24:55;;;;;;;3.38;1.30;;;;;;;15.59;72.17;95321.19;4985662;28;20089;-92
2022/10/02 02:27:25;;;;;;;2.57;1.40;;;;;;;15.65;71.40;95330.34;4981598;28;20068;-93
2022/10/02 02:29:52;;;;;;;2.20;1.33;;;;;;;15.64;71.83;95332.19;4991859;28;20271;-92
2022/10/02 02:32:19;;;;;;;3.33;1.20;;;;;;;15.61;71.35;95335.31;5018652;28;20029;-92
2022/10/02 02:34:51;;;;;;;8.43;1.50;;;;;;;15.53;71.80;95330.13;4987204;28;20049;-93
2022/10/02 02:37:18;;;;;;;2.15;1.23;;;;;;;15.62;70.65;95336.97;5001932;28;20046;-92
2022/10/02 02:39:48;;;;;;;3.08;1.20;;;;;;;15.71;70.67;95334.88;5002461;28;20033;-92
2022/10/02 02:42:14;;;;;;;2.88;0.90;;;;;;;15.65;70.88;95343.84;5002285;28;20136;-92
2022/10/02 02:44:41;;;;;;;2.33;1.30;;;;;;;15.63;71.09;95344.06;4986410;28;20030;-92
2022/10/02 02:47:11;;;;;;;1.95;1.20;;;;;;;15.56;71.36;95337.81;5002064;28;20042;-92
2022/10/02 02:49:56;;;;;;;2.67;1.30;;;;;;;15.40;71.98;95345.34;5035648;28;20018;-92
2022/10/02 02:52:28;;;;;;;2.95;1.30;;;;;;;15.56;71.13;95348.63;5001715;28;20036;-93
2022/10/02 02:55:40;;;;;;;3.10;1.13;;;;;;;15.49;71.79;95337.84;5000783;28;20034;-93
2022/10/02 02:58:11;;;;;;;3.35;1.15;;;;;;;15.68;71.19;95346.13;5015268;28;20102;-93
2022/10/02 03:00:37;;;;;;;1.67;0.90;;;;;;;15.66;70.68;95354.44;5002721;28;20053;-93
2022/10/02 03:03:02;;;;;;;2.65;1.00;;;;;;;15.70;70.64;95354.88;4985833;28;20030;-93
2022/10/02 03:05:28;;;;;;;1.50;1.00;;;;;;;15.62;71.25;95369.41;5002865;28;20030;-93
2022/10/02 03:07:55;;;;;;;2.40;1.15;;;;;;;15.60;71.40;95366.09;4988681;28;20030;-93
2022/10/02 03:10:24;;;;;;;5.22;1.10;;;;;;;15.54;71.64;95364.25;4986782;28;20069;-94
2022/10/02 03:13:16;;;;;;;2.13;1.10;;;;;;;15.33;72.34;95372.34;5027005;28;20033;-93
2022/10/02 03:15:54;;;;;;;3.70;1.35;;;;;;;15.27;72.93;95381.31;5010843;28;20037;-94
2022/10/02 03:18:47;;;;;;;4.07;1.30;;;;;;;15.03;73.71;95385.44;4995858;28;20041;-93
2022/10/02 03:21:36;;;;;;;3.23;1.10;;;;;;;15.03;73.79;95374.63;5011971;28;20045;-92
2022/10/02 03:24:15;;;;;;;7.70;1.67;;;;;;;14.83;74.91;95378.16;5013397;28;20276;-94
2022/10/02 03:26:53;;;;;;;4.70;1.70;;;;;;;14.85;74.14;95392.28;5013014;28;20030;-93
2022/10/02 03:29:30;;;;;;;2.60;1.77;;;;;;;14.98;74.11;95393.34;5013195;28;20036;-93
2022/10/02 03:31:56;;;;;;;4.70;1.90;;;;;;;14.91;74.04;95391.44;4999633;28;20029;-94
2022/10/02 03:34:22;;;;;;;2.78;1.90;;;;;;;15.03;73.89;95393.53;4997487;28;20032;-93
2022/10/02 03:36:48;;;;;;;8.15;2.80;;;;;;;14.95;74.10;95394.56;4997430;28;20045;-93
2022/10/02 03:39:13;;;;;;;3.22;2.08;;;;;;;14.88;74.53;95391.84;4997268;28;20021;-94
2022/10/02 03:41:38;;;;;;;3.17;2.00;;;;;;;14.80;75.05;95392.88;4997676;28;20052;-93
2022/10/02 03:44:04;;;;;;;2.72;1.98;;;;;;;14.94;74.16;95379.41;4998734;28;20064;-91
2022/10/02 03:46:29;;;;;;;3.58;2.58;;;;;;;14.73;74.75;95383.09;4996185;28;20034;-91
2022/10/02 03:48:55;;;;;;;3.80;2.45;;;;;;;14.73;74.03;95383.09;5027561;28;20034;-93
2022/10/02 03:51:22;;;;;;;4.60;2.50;;;;;;;14.64;74.52;95399.47;5027396;28;20041;-92
2022/10/02 03:53:47;;;;;;;3.00;2.40;;;;;;;14.59;74.96;95420.81;5012368;28;20085;-93
2022/10/02 03:56:20;;;;;;;3.22;2.40;;;;;;;14.73;74.43;95426.28;4996392;28;20038;-93
2022/10/02 03:58:47;;;;;;;3.13;2.58;;;;;;;14.79;73.72;95434.44;4993141;28;20041;-93
2022/10/02 04:01:15;;;;;;;3.20;2.70;;;;;;;14.86;73.69;95442.56;4992260;28;20041;-92
2022/10/02 04:03:52;;;;;;;2.60;2.40;;;;;;;14.89;73.55;95441.31;5027581;28;20048;-93
2022/10/02 04:06:22;;;;;;;3.35;2.70;;;;;;;14.96;72.65;95447.53;4978588;28;20026;-93
2022/10/02 04:08:55;;;;;;;5.68;2.60;;;;;;;15.03;72.45;95444.84;5011139;28;20030;-92
2022/10/02 04:11:24;;;;;;;4.93;2.80;;;;;;;15.07;72.29;95463.16;5011428;28;20094;-93
2022/10/02 04:14:05;;;;;;;7.25;2.80;;;;;;;15.06;72.20;95460.66;4990903;28;20440;-93
2022/10/02 04:16:41;;;;;;;3.45;2.40;;;;;;;15.03;72.38;95470.00;4993689;28;20017;-93
2022/10/02 04:19:21;;;;;;;3.90;2.63;;;;;;;15.15;72.02;95467.56;5008765;28;20050;-94
2022/10/02 04:22:15;;;;;;;5.20;2.50;;;;;;;15.24;71.35;95470.03;4989894;28;20044;-92
2022/10/02 04:24:48;;;;;;;4.70;2.30;;;;;;;15.06;71.78;95463.34;5014828;28;20025;-93
2022/10/02 04:27:20;;;;;;;4.50;2.90;;;;;;;15.02;71.41;95462.94;4998074;28;20311;-93
2022/10/02 04:29:50;;;;;;;3.30;2.63;;;;;;;14.95;71.19;95476.44;5010958;28;20062;-93
2022/10/02 04:32:21;;;;;;;3.85;2.72;;;;;;;14.90;70.97;95470.81;5009374;28;20022;-93
2022/10/02 04:34:46;;;;;;;3.00;2.70;;;;;;;15.05;70.78;95478.75;4996793;28;20038;-92
2022/10/02 04:37:37;;;;;;;2.75;2.40;;;;;;;15.08;70.44;95488.28;5010304;28;20030;-92
2022/10/02 04:40:36;;;;;;;4.15;2.90;;;;;;;14.88;71.19;95499.88;5026405;28;20041;-91
2022/10/02 04:43:29;;;;;;;3.53;3.10;;;;;;;15.17;71.07;95502.47;5002499;28;20067;-93
2022/10/02 04:46:03;;;;;;;3.95;2.83;;;;;;;15.23;70.79;95512.44;5010099;28;20027;-93
2022/10/02 04:48:57;;;;;;;3.92;3.08;;;;;;;15.22;71.14;95515.34;4991758;28;20094;-93
2022/10/02 04:51:29;;;;;;;4.82;2.92;;;;;;;15.18;70.70;95517.63;5007265;28;20022;-94
2022/10/02 04:54:22;;;;;;;3.90;3.03;;;;;;;15.25;70.49;95531.16;5003342;28;20030;-93
2022/10/02 04:56:53;;;;;;;4.15;2.88;;;;;;;15.25;70.09;95541.97;5006874;28;20022;-92
2022/10/02 04:59:18;;;;;;;3.95;3.00;;;;;;;15.32;69.72;95540.94;5013490;28;20027;-95
2022/10/02 05:01:43;;;;;;;3.33;2.90;;;;;;;15.26;69.57;95538.22;5007893;28;20035;-92
2022/10/02 05:04:19;;;;;;;3.63;2.92;;;;;;;15.44;69.39;95541.16;5008098;28;20026;-93
2022/10/02 05:07:15;;;;;;;3.22;2.70;;;;;;;15.22;69.69;95539.66;5005921;28;20034;-92
2022/10/02 05:10:01;;;;;;;3.42;2.90;;;;;;;15.29;69.48;95543.19;5002696;28;20050;-91
2022/10/02 05:12:42;;;;;;;6.30;3.33;;;;;;;15.24;69.64;95551.09;5011999;28;20046;-92
2022/10/02 05:15:16;;;;;;;4.80;2.85;;;;;;;15.39;69.67;95550.91;5011232;28;20039;-93
2022/10/02 05:17:44;;;;;;;3.63;2.97;;;;;;;15.33;68.92;95553.41;5012381;28;20049;-92
2022/10/02 05:20:22;;;;;;;4.53;2.80;;;;;;;15.38;68.65;95541.97;5012944;28;20033;-91
2022/10/02 05:22:56;;;;;;;4.13;2.90;;;;;;;15.43;68.20;95536.78;5009377;28;20034;-92
2022/10/02 05:25:44;;;;;;;4.80;3.35;;;;;;;15.38;67.79;95536.56;5012175;28;20034;-92
2022/10/02 05:28:25;;;;;;;4.25;3.00;;;;;;;15.38;68.34;95546.56;5011104;28;20127;-93
2022/10/02 05:30:54;;;;;;;3.67;2.53;;;;;;;15.32;67.58;95537.38;5007677;28;20045;-91
2022/10/02 05:33:38;;;;;;;5.68;2.97;;;;;;;15.17;68.43;95551.09;5009845;28;20034;-93
2022/10/02 05:37:05;;;;;;;3.00;2.70;;;;;;;15.04;68.86;95551.88;5009674;28;20053;-92
2022/10/02 05:39:36;;;;;;;3.47;2.70;;;;;;;15.05;69.06;95556.22;4966664;29;20035;-92
2022/10/02 05:42:22;;;;;;;5.97;2.90;;;;;;;15.18;68.75;95564.38;4933668;29;20537;-94
2022/10/02 05:44:53;;;;;;;3.05;2.75;;;;;;;15.07;68.74;95562.28;4977095;28;20053;-93
2022/10/02 05:47:24;;;;;;;4.38;2.90;;;;;;;15.14;68.25;95563.13;4974598;28;20091;-94
2022/10/02 05:49:50;;;;;;;3.35;2.53;;;;;;;15.31;67.85;95571.66;4956700;28;20135;-92
2022/10/02 05:52:19;;;;;;;4.72;3.08;;;;;;;15.45;67.49;95579.81;4988686;28;20051;-93
2022/10/02 05:54:48;;;;;;;3.38;2.67;;;;;;;15.50;67.36;95584.63;4972908;28;20090;-92
2022/10/02 05:57:21;;;;;;;4.13;2.80;;;;;;;15.38;67.96;95582.50;4986487;28;20098;-94
2022/10/02 06:00:03;;;;;;;3.80;3.20;;;;;;;15.24;68.60;95578.09;4984891;28;20030;-94
2022/10/02 06:02:39;;;;;;;6.90;3.15;;;;;;;15.44;66.91;95578.97;4987933;28;20026;-93
2022/10/02 06:05:25;;;;;;;3.65;2.92;;;;;;;15.61;65.90;95581.31;4969475;28;20069;-93
2022/10/02 06:07:53;;;;;;;5.72;2.92;;;;;;;15.76;65.00;95574.91;4952827;28;20041;-93
2022/10/02 06:10:31;;;;;;;4.95;3.03;;;;;;;15.77;65.20;95576.53;4967140;28;20035;-93
2022/10/02 06:13:01;;;;;;;3.72;3.13;;;;;;;15.83;65.02;95589.25;4967426;28;20031;-93
2022/10/02 06:15:43;;;;;;;5.78;3.25;;;;;;;15.85;64.92;95594.47;4965704;28;20023;-93
2022/10/02 06:18:16;;;;;;;3.95;3.38;;;;;;;15.96;64.48;95604.66;4947896;28;20095;-92
2022/10/02 06:20:51;;;;;;;4.70;3.15;;;;;;;16.03;64.10;95602.81;4963312;28;20568;-93
2022/10/02 06:23:45;;;;;;;4.57;3.58;;;;;;;16.06;64.03;95613.22;4946512;28;20035;-93
2022/10/02 06:26:22;;;;;;;3.85;3.38;;;;;;;16.24;63.59;95619.91;4978983;28;20046;-92
2022/10/02 06:28:53;;;;;;;4.22;3.47;;;;;;;16.04;63.82;95617.19;4984354;28;20087;-94
2022/10/02 06:31:33;;;;;;;6.32;3.30;;;;;;;16.16;62.92;95617.38;4953947;28;20038;-92
2022/10/02 06:33:58;;;;;;;4.35;3.50;;;;;;;16.30;63.13;95631.75;4989108;28;20114;-93
2022/10/02 06:36:24;;;;;;;3.60;3.30;;;;;;;16.27;63.06;95632.16;4989740;28;20501;-94
2022/10/02 06:39:11;;;;;;;5.55;3.97;;;;;;;16.02;62.45;95639.03;4987174;28;20529;-93
2022/10/02 06:41:48;;;;;;;4.88;4.20;;;;;;;16.11;62.28;95647.78;4989994;28;20087;-95
2022/10/02 06:44:17;;;;;;;4.05;3.60;;;;;;;16.29;62.37;95658.00;4985724;28;20061;-95
2022/10/02 06:46:45;;;;;;;4.03;3.58;;;;;;;16.45;61.79;95658.63;5007749;28;20025;-92
2022/10/02 06:49:18;;;;;;;4.30;3.40;;;;;;;16.62;60.98;95669.84;5022960;28;20341;-92
2022/10/02 06:51:59;;;;;;;4.78;3.70;;;;;;;16.71;60.39;95661.50;4992046;28;20037;-93
2022/10/02 06:54:33;;;;;;;5.18;3.70;;;;;;;16.82;60.51;95652.75;5011591;28;20107;-92
2022/10/02 06:57:19;;;;;;;6.53;3.55;;;;;;;17.14;59.21;95660.19;5010063;28;20041;-92
2022/10/02 07:00:15;;;;;;;4.25;3.47;;;;;;;17.04;59.14;95660.59;5026912;28;20030;-92
2022/10/02 07:02:43;;;;;;;4.25;3.38;;;;;;;16.97;59.36;95676.06;5008762;28;20033;-94
2022/10/02 07:05:34;;;;;;;5.88;3.08;;;;;;;17.09;58.69;95668.97;5027474;28;20037;-93
2022/10/02 07:08:17;;;;;;;3.72;3.03;;;;;;;16.90;58.91;95676.06;5007559;28;20030;-92
2022/10/02 07:11:02;;;;;;;4.03;3.30;;;;;;;17.07;58.20;95676.47;5013530;28;20067;-92
2022/10/02 07:13:42;;;;;;;4.50;3.10;;;;;;;17.00;57.85;95675.63;5026019;28;20033;-95
2022/10/02 07:16:17;;;;;;;4.47;2.85;;;;;;;16.94;57.77;95669.19;5025705;28;20057;-93
2022/10/02 07:19:04;;;;;;;3.88;2.92;;;;;;;17.18;57.36;95675.00;4991283;28;20030;-94
2022/10/02 07:21:54;;;;;;;4.60;2.80;;;;;;;17.17;56.42;95648.91;5022667;28;20035;-93
2022/10/02 07:24:38;;;;;;;3.60;2.88;;;;;;;16.86;56.48;95653.97;5008423;28;20504;-94
2022/10/02 07:27:09;;;;;;;6.10;2.70;;;;;;;16.75;57.23;95660.06;5023648;28;20041;-94
2022/10/02 07:29:43;;;;;;;3.85;2.67;;;;;;;16.75;57.06;95658.16;5005657;28;20465;-93
2022/10/02 07:32:21;;;;;;;5.95;2.45;;;;;;;16.71;55.85;95646.09;5026785;28;20121;-94
2022/10/02 07:34:57;;;;;;;3.63;2.55;;;;;;;16.81;55.04;95670.03;5027021;28;20018;-94
2022/10/02 07:37:48;;;;;;;3.55;2.40;;;;;;;16.59;55.55;95686.50;5006232;28;20021;-94
2022/10/02 07:40:37;;;;;;;2.65;2.08;;;;;;;16.56;55.36;95676.94;5027041;28;20030;-95
2022/10/02 07:43:38;;;;;;;6.25;2.58;;;;;;;16.70;55.10;95684.22;5008672;28;20347;-93
2022/10/02 07:46:42;;;;;;;3.13;2.30;;;;;;;16.48;55.60;95689.84;5008445;28;20127;-92
2022/10/02 07:49:25;;;;;;;3.28;2.00;;;;;;;16.37;55.69;95697.56;5027608;28;20030;-92
2022/10/02 07:52:17;;;;;;;4.22;2.45;;;;;;;16.35;55.46;95696.06;5024616;28;20030;-94
2022/10/02 07:54:51;;;;;;;6.35;1.75;;;;;;;16.44;53.45;95698.38;4993985;28;20038;-92
2022/10/02 07:57:25;;;;;;;2.88;1.83;;;;;;;16.20;53.56;95699.84;5004029;28;20120;-93
2022/10/02 07:59:53;;;;;;;2.90;2.10;;;;;;;16.25;53.51;95715.44;5021818;28;20034;-93
2022/10/02 08:02:37;;;;;;;4.40;2.17;;;;;;;16.43;54.56;95720.22;4987228;28;20034;-93
2022/10/02 08:05:07;;;;;;;2.55;1.95;;;;;;;16.40;53.75;95710.66;5021102;28;20021;-92
2022/10/02 08:07:33;;;;;;;4.60;1.88;;;;;;;16.42;53.58;95711.31;4989119;28;20037;-92
2022/10/02 08:10:02;;;;;;;3.55;1.88;;;;;;;16.37;53.73;95719.19;4992675;28;20018;-94
2022/10/02 08:12:35;;;;;;;3.20;1.88;;;;;;;16.36;52.94;95706.72;4989754;28;20030;-93
2022/10/02 08:15:00;;;;;;;3.88;2.00;;;;;;;16.21;54.81;95716.88;4991612;28;20026;-94
2022/10/02 08:17:42;;;;;;;2.95;1.98;;;;;;;16.42;52.69;95722.13;4993172;28;20044;-93
2022/10/02 08:20:21;;;;;;;3.13;1.65;;;;;;;16.23;54.16;95720.22;5009517;28;20026;-94
2022/10/02 08:23:02;;;;;;;3.42;2.13;;;;;;;16.28;54.26;95728.56;4990216;28;20018;-93
2022/10/02 08:25:30;;;;;;;3.00;1.65;;;;;;;16.13;53.34;95710.63;5008098;28;20332;-94
2022/10/02 08:28:25;;;;;;;7.03;2.15;;;;;;;16.55;51.70;95718.59;4991474;28;20053;-95
2022/10/02 08:30:51;;;;;;;6.70;2.13;;;;;;;16.64;52.07;95702.97;4993444;28;20137;-93
2022/10/02 08:33:20;;;;;;;3.25;1.60;;;;;;;16.67;52.24;95712.53;5011736;28;20034;-93
2022/10/02 08:35:49;;;;;;;2.53;1.80;;;;;;;16.68;51.65;95709.63;4997292;28;20018;-95
2022/10/02 08:38:18;;;;;;;2.83;1.60;;;;;;;16.64;51.49;95694.84;5028583;28;20113;-94
2022/10/02 08:41:03;;;;;;;3.00;1.60;;;;;;;16.45;52.83;95691.09;5028223;28;20084;-92
2022/10/02 08:43:59;;;;;;;2.88;1.80;;;;;;;16.64;53.94;95699.41;5025011;28;20096;-92
2022/10/02 08:46:27;;;;;;;3.88;1.63;;;;;;;16.61;52.19;95686.28;5012987;28;20041;-93
2022/10/02 08:49:27;;;;;;;3.15;1.50;;;;;;;16.34;52.00;95681.72;5033570;28;20095;-92
2022/10/02 08:52:10;;;;;;;2.15;1.58;;;;;;;16.35;52.54;95691.50;5016968;28;20034;-93
2022/10/02 08:54:50;;;;;;;3.28;2.13;;;;;;;16.42;52.16;95675.28;5005406;28;20041;-93
2022/10/02 08:57:34;;;;;;;2.85;1.80;;;;;;;16.55;51.67;95683.41;5034461;28;20028;-92
2022/10/02 09:00:08;;;;;;;2.75;1.83;;;;;;;16.45;51.64;95688.38;5033646;28;20037;-94
2022/10/02 09:02:49;;;;;;;2.70;1.75;;;;;;;16.50;52.78;95695.88;5015031;28;20029;-92
2022/10/02 09:05:38;;;;;;;2.72;1.77;;;;;;;16.63;51.08;95685.06;5017726;28;20037;-93
2022/10/02 09:08:09;;;;;;;2.60;1.70;;;;;;;16.49;51.38;95677.97;5013424;28;20061;-92
2022/10/02 09:11:04;;;;;;;3.15;1.98;;;;;;;16.63;51.41;95674.22;5036216;28;20026;-92
2022/10/02 09:14:09;;;;;;;3.22;2.00;;;;;;;16.71;51.50;95680.47;5015801;28;20038;-94
2022/10/02 09:16:56;;;;;;;5.90;2.00;;;;;;;16.72;50.56;95684.84;5016358;28;20025;-92
2022/10/02 09:19:59;;;;;;;4.97;1.88;;;;;;;16.74;50.00;95672.75;5030917;28;20045;-93
2022/10/02 09:22:30;;;;;;;5.03;2.30;;;;;;;17.00;50.68;95689.16;5029310;28;20081;-94
2022/10/02 09:25:13;;;;;;;4.75;2.20;;;;;;;16.97;50.97;95648.97;5031116;28;20041;-92
2022/10/02 09:27:42;;;;;;;5.68;2.20;;;;;;;17.10;50.04;95657.09;5032836;28;20034;-93
2022/10/02 09:30:10;;;;;;;3.30;2.05;;;;;;;17.04;50.27;95675.00;5030422;28;20026;-92
2022/10/02 09:33:01;;;;;;;3.35;2.20;;;;;;;16.90;50.14;95666.06;5030800;28;20022;-93
2022/10/02 09:35:48;;;;;;;2.50;1.90;;;;;;;17.00;50.29;95681.03;5031348;28;20026;-93
2022/10/02 09:38:31;;;;;;;3.13;1.92;;;;;;;17.15;49.21;95668.09;5014282;28;20093;-93
2022/10/02 09:41:15;;;;;;;2.28;1.80;;;;;;;17.04;50.66;95706.66;5012709;28;20045;-92
2022/10/02 09:44:18;;;;;;;5.70;1.90;;;;;;;17.16;50.14;95677.91;5026098;28;20048;-93
2022/10/02 09:46:55;;;;;;;5.70;2.17;;;;;;;17.16;50.04;95686.06;5031735;28;20085;-94
2022/10/02 09:49:39;;;;;;;2.92;2.03;;;;;;;17.03;50.54;95686.03;5036132;28;20057;-94
2022/10/02 09:52:28;;;;;;;2.40;1.80;;;;;;;17.13;50.62;95678.34;5037674;28;20044;-94
2022/10/02 09:55:02;;;;;;;3.13;1.67;;;;;;;16.93;50.23;95662.09;5006054;28;20021;-93
2022/10/02 09:57:37;;;;;;;2.28;2.03;;;;;;;17.06;51.90;95669.34;5018766;28;20050;-93
2022/10/02 10:00:21;;;;;;;5.47;2.08;;;;;;;17.10;49.08;95681.47;5035850;28;20053;-93
2022/10/02 10:03:16;;;;;;;2.47;1.63;;;;;;;17.04;49.83;95671.44;5017964;28;20025;-93
2022/10/02 10:05:54;;;;;;;4.97;1.65;;;;;;;17.11;47.42;95669.59;5012395;28;20022;-94
2022/10/02 10:08:47;;;;;;;2.28;1.60;;;;;;;17.17;49.20;95679.56;5025202;28;20026;-94
2022/10/02 10:11:46;;;;;;;3.45;1.88;;;;;;;17.27;48.97;95683.72;5022919;28;20022;-93
2022/10/02 10:14:36;;;;;;;3.78;1.92;;;;;;;17.17;49.90;95676.88;5023933;28;20022;-93
2022/10/02 10:17:26;;;;;;;2.45;1.83;;;;;;;17.30;49.31;95686.84;5022603;28;20087;-94
2022/10/02 10:20:00;;;;;;;3.63;1.80;;;;;;;17.36;50.06;95684.31;5026329;28;20107;-93
2022/10/02 10:22:58;;;;;;;4.25;1.88;;;;;;;17.28;49.84;95682.69;5025289;28;20033;-94
2022/10/02 10:25:51;;;;;;;2.95;1.65;;;;;;;17.32;48.96;95688.50;4989823;28;20145;-93
2022/10/02 10:28:50;;;;;;;3.10;1.55;;;;;;;17.40;49.09;95691.81;5021424;28;20034;-94
2022/10/02 10:31:15;;;;;;;2.15;1.58;;;;;;;17.28;49.14;95682.69;5010570;28;20068;-94
2022/10/02 10:34:02;;;;;;;4.18;1.90;;;;;;;17.25;48.50;95693.94;5026122;28;20037;-94
2022/10/02 10:39:49;;;;;;;3.78;1.40;;;;;;;17.30;48.77;95680.56;5026135;28;20037;-93
2022/10/02 10:42:52;;;;;;;2.70;1.25;;;;;;;17.50;48.14;95666.13;5007068;28;20097;-93
2022/10/02 10:45:52;;;;;;;3.25;1.60;;;;;;;17.61;47.81;95667.31;5005406;28;20034;-92
2022/10/02 10:48:36;;;;;;;2.95;1.30;;;;;;;17.69;47.54;95650.78;5029367;28;20030;-92
2022/10/02 10:51:29;;;;;;;4.05;1.50;;;;;;;17.98;46.55;95664.81;5028613;28;20065;-93
2022/10/02 10:54:21;;;;;;;2.63;1.20;;;;;;;17.71;46.38;95656.00;5029701;28;20030;-92
2022/10/02 10:57:11;;;;;;;6.67;1.50;;;;;;;17.71;47.02;95659.56;5030075;28;20112;-94
2022/10/02 10:59:52;;;;;;;2.13;1.55;;;;;;;17.77;46.78;95672.25;4993544;28;20034;-94
2022/10/02 11:02:59;;;;;;;2.10;1.30;;;;;;;17.99;45.18;95695.50;5028248;28;20072;-94
2022/10/02 11:06:04;;;;;;;2.30;1.63;;;;;;;17.99;46.62;95668.38;5004118;28;20042;-90
2022/10/02 11:08:54;;;;;;;2.53;1.15;;;;;;;18.16;45.64;95661.41;5010769;28;20025;-90
2022/10/02 11:11:30;;;;;;;3.38;1.50;;;;;;;18.28;45.96;95688.66;5029088;28;20036;-93
2022/10/02 11:14:37;;;;;;;2.63;1.40;;;;;;;18.30;46.22;95669.44;4995949;28;20105;-90
2022/10/02 11:17:14;;;;;;;7.65;1.10;;;;;;;18.37;44.57;95672.94;5010927;28;20077;-92
2022/10/02 11:19:52;;;;;;;7.53;1.40;;;;;;;18.49;44.83;95669.50;5012467;28;20071;-93
2022/10/02 11:22:33;;;;;;;1.95;1.20;;;;;;;18.36;45.27;95665.84;5008804;28;20128;-92
2022/10/02 11:25:15;;;;;;;2.90;1.40;;;;;;;18.41;45.17;95657.03;5031070;28;20086;-92
2022/10/02 11:27:58;;;;;;;2.42;1.30;;;;;;;18.60;44.20;95666.09;5008230;28;20029;-93
2022/10/02 11:30:39;;;;;;;1.95;1.20;;;;;;;18.48;44.56;95646.09;4999952;28;20030;-91
2022/10/02 11:33:20;;;;;;;1.67;1.10;;;;;;;18.58;44.54;95662.75;4998999;28;20029;-91
2022/10/02 11:35:55;;;;;;;2.03;1.15;;;;;;;18.65;44.49;95663.50;5020860;28;20026;-92
2022/10/02 11:38:46;;;;;;;3.50;1.30;;;;;;;18.50;44.90;95644.84;5008421;28;20100;-93
2022/10/02 11:41:52;;;;;;;4.53;1.20;;;;;;;18.47;44.35;95648.00;5010059;28;20436;-92
2022/10/02 11:44:21;;;;;;;2.50;1.15;;;;;;;18.44;43.80;95663.91;4942795;29;20043;-94
2022/10/02 11:47:08;;;;;;;2.33;0.90;;;;;;;18.35;43.93;95642.47;5009371;28;20049;-94
2022/10/02 11:49:58;;;;;;;4.60;1.20;;;;;;;18.44;44.16;95640.31;5015251;28;20030;-92
2022/10/02 11:52:36;;;;;;;2.42;1.05;;;;;;;18.67;43.74;95644.25;5017915;28;20033;-94
2022/10/02 11:55:12;;;;;;;4.28;1.50;;;;;;;18.70;44.17;95657.41;5025179;28;20081;-94
2022/10/02 11:57:46;;;;;;;3.88;1.27;;;;;;;18.68;44.42;95650.53;4992338;28;20038;-95
2022/10/02 12:00:34;;;;;;;3.35;1.30;;;;;;;18.83;44.05;95651.00;5010626;28;20052;-93
2022/10/02 12:03:20;;;;;;;1.88;1.23;;;;;;;18.90;44.60;95664.53;4987085;28;20057;-94
2022/10/02 12:06:04;;;;;;;2.08;1.30;;;;;;;18.92;43.59;95650.72;5007692;28;20026;-93
2022/10/02 12:08:40;;;;;;;2.83;1.35;;;;;;;19.11;43.75;95649.72;5025422;28;20699;-95
2022/10/02 12:11:20;;;;;;;2.38;1.10;;;;;;;19.18;41.85;95649.66;5027042;28;20029;-94
2022/10/02 12:14:07;;;;;;;3.08;1.38;;;;;;;19.17;42.89;95658.03;5010531;28;20086;-94
2022/10/02 12:16:57;;;;;;;4.82;1.17;;;;;;;19.27;42.45;95653.72;5005535;28;20037;-94
2022/10/02 12:19:39;;;;;;;1.92;1.20;;;;;;;19.13;42.44;95642.19;5025860;28;20109;-94
2022/10/02 12:28:27;;;;;;;4.28;1.35;;;;;;;19.46;40.38;95655.63;5031675;28;20045;-93
2022/10/02 12:31:00;;;;;;;3.38;1.10;;;;;;;19.30;41.18;95668.75;5032654;28;20504;-92
2022/10/02 12:33:32;;;;;;;;;;;;;;;19.24;42.36;95669.66;4993270;28;20038;-92
2022/10/02 12:36:12;;;;;;;2.72;1.30;;;;;;;19.45;42.41;95667.53;5029345;28;19905;-94
2022/10/02 12:39:10;;;;;;;2.03;1.30;;;;;;;19.71;42.24;95662.81;5026662;28;20022;-95
2022/10/02 12:41:59;;;;;;;3.45;1.30;;;;;;;19.72;40.61;95654.44;4992288;28;20034;-94